createdAt,value
2022-11-02T00:01:24.017Z,98625.66
2022-11-02T00:03:52.596Z,98625.72
2022-11-02T00:06:20.799Z,98625.59
2022-11-02T00:08:49.086Z,98633.75
2022-11-02T00:11:18.752Z,98623.53
2022-11-02T00:13:47.324Z,98622.22
2022-11-02T00:16:16.856Z,98624.09
2022-11-02T00:18:45.753Z,98620.28
2022-11-02T00:21:14.899Z,98620.47
2022-11-02T00:23:43.541Z,98630.00
2022-11-02T00:26:11.760Z,98628.66
2022-11-02T00:28:41.418Z,98627.63
2022-11-02T00:31:10.104Z,98627.66
2022-11-02T00:33:38.459Z,98624.91
2022-11-02T00:36:06.915Z,98637.25
2022-11-02T00:38:35.329Z,98635.00
2022-11-02T00:41:03.704Z,98624.50
2022-11-02T00:43:32.148Z,98628.66
2022-11-02T00:46:02.159Z,98637.97
2022-11-02T00:48:30.547Z,98640.31
2022-11-02T00:50:58.850Z,98638.38
2022-11-02T00:53:27.445Z,98632.97
2022-11-02T00:55:55.835Z,98638.97
2022-11-02T00:58:24.264Z,98639.69
2022-11-02T01:00:52.469Z,98629.59
2022-11-02T01:03:22.307Z,98629.88
2022-11-02T01:05:50.467Z,98636.00
2022-11-02T01:08:18.965Z,98635.50
2022-11-02T01:10:48.409Z,98643.78
2022-11-02T01:13:17.079Z,98636.75
2022-11-02T01:15:45.320Z,98639.00
2022-11-02T01:18:14.151Z,98639.91
2022-11-02T01:20:43.797Z,98637.66
2022-11-02T01:23:12.291Z,98645.53
2022-11-02T01:25:46.252Z,98637.34
2022-11-02T01:28:14.802Z,98642.56
2022-11-02T01:30:43.071Z,98645.22
2022-11-02T01:33:12.203Z,98638.06
2022-11-02T01:35:40.376Z,98640.09
2022-11-02T01:38:10.290Z,98641.03
2022-11-02T01:40:39.356Z,98637.88
2022-11-02T01:43:21.752Z,98634.19
2022-11-02T01:45:51.153Z,98632.69
2022-11-02T01:48:21.274Z,98640.94
2022-11-02T01:50:50.213Z,98636.44
2022-11-02T01:53:19.882Z,98635.31
2022-11-02T01:55:48.283Z,98638.25
2022-11-02T01:58:16.757Z,98631.06
2022-11-02T02:00:45.176Z,98628.66
2022-11-02T02:03:17.810Z,98635.63
2022-11-02T02:05:49.170Z,98637.25
2022-11-02T02:08:20.874Z,98640.09
2022-11-02T02:10:49.038Z,98632.56
2022-11-02T02:13:18.122Z,98635.59
2022-11-02T02:15:50.973Z,98645.03
2022-11-02T02:18:25.070Z,98647.56
2022-11-02T02:21:04.072Z,98640.63
2022-11-02T02:23:50.087Z,98648.06
2022-11-02T02:26:41.729Z,98646.97
2022-11-02T02:29:13.063Z,98652.66
2022-11-02T02:31:44.649Z,98656.75
2022-11-02T02:34:17.612Z,98651.22
2022-11-02T02:36:49.240Z,98658.06
2022-11-02T02:39:21.219Z,98655.63
2022-11-02T02:41:56.003Z,98656.22
2022-11-02T02:44:30.074Z,98653.47
2022-11-02T02:47:00.705Z,98652.03
2022-11-02T02:49:31.702Z,98640.19
2022-11-02T02:52:00.947Z,98645.94
2022-11-02T02:54:33.013Z,98651.53
2022-11-02T02:57:05.097Z,98654.69
2022-11-02T02:59:38.043Z,98647.25
2022-11-02T03:02:07.586Z,98646.88
2022-11-02T03:04:36.046Z,98651.19
2022-11-02T03:07:04.507Z,98645.28
2022-11-02T03:09:36.946Z,98660.31
2022-11-02T03:12:12.941Z,98653.38
2022-11-02T03:14:49.844Z,98656.44
2022-11-02T03:17:19.327Z,98662.59
2022-11-02T03:19:52.660Z,98657.16
2022-11-02T03:22:26.423Z,98659.91
2022-11-02T03:25:01.427Z,98671.13
2022-11-02T03:27:36.747Z,98673.38
2022-11-02T03:30:09.871Z,98668.88
2022-11-02T03:32:40.846Z,98667.47
2022-11-02T03:35:14.357Z,98673.63
2022-11-02T03:37:46.404Z,98674.41
2022-11-02T03:40:18.474Z,98670.22
2022-11-02T03:42:47.268Z,98670.31
2022-11-02T03:45:20.085Z,98673.81
2022-11-02T03:47:50.976Z,98671.88
2022-11-02T03:50:22.851Z,98677.28
2022-11-02T03:52:57.233Z,98681.16
2022-11-02T03:55:30.022Z,98675.16
2022-11-02T03:57:59.245Z,98673.91
2022-11-02T04:00:31.543Z,98678.00
2022-11-02T04:03:04.196Z,98680.16
2022-11-02T04:05:34.254Z,98679.94
2022-11-02T04:08:20.443Z,98677.47
2022-11-02T04:11:06.679Z,98679.50
2022-11-02T04:13:52.744Z,98684.81
2022-11-02T04:16:27.551Z,98683.69
2022-11-02T04:19:14.151Z,98673.16
2022-11-02T04:22:03.085Z,98690.22
2022-11-02T04:24:48.715Z,98689.22
2022-11-02T04:27:20.912Z,98693.91
2022-11-02T04:29:49.608Z,98694.72
2022-11-02T04:32:39.945Z,98693.41
2022-11-02T04:35:08.498Z,98691.34
2022-11-02T04:37:58.351Z,98693.44
2022-11-02T04:40:26.717Z,98698.69
2022-11-02T04:42:55.074Z,98691.91
2022-11-02T04:45:23.361Z,98695.25
2022-11-02T04:47:52.952Z,98699.22
2022-11-02T04:50:21.036Z,98700.72
2022-11-02T04:52:56.891Z,98696.28
2022-11-02T04:55:25.112Z,98694.19
2022-11-02T04:57:53.467Z,98692.78
2022-11-02T05:00:22.716Z,98692.66
2022-11-02T05:02:52.644Z,98689.50
2022-11-02T05:05:20.896Z,98697.88
2022-11-02T05:07:49.300Z,98691.41
2022-11-02T05:10:17.588Z,98695.06
2022-11-02T05:12:45.895Z,98701.25
2022-11-02T05:15:14.065Z,98704.22
2022-11-02T05:17:42.504Z,98704.06
2022-11-02T05:20:12.511Z,98713.50
2022-11-02T05:22:43.363Z,98715.22
2022-11-02T05:25:11.745Z,98720.81
2022-11-02T05:27:40.214Z,98716.28
2022-11-02T05:30:09.109Z,98714.66
2022-11-02T05:32:37.531Z,98708.91
2022-11-02T05:35:06.345Z,98713.25
2022-11-02T05:37:36.179Z,98714.03
2022-11-02T05:40:04.982Z,98712.38
2022-11-02T05:42:33.391Z,98714.25
2022-11-02T05:45:03.203Z,98714.44
2022-11-02T05:47:31.497Z,98719.28
2022-11-02T05:49:59.627Z,98723.16
2022-11-02T05:52:27.957Z,98721.47
2022-11-02T05:54:57.414Z,98719.41
2022-11-02T05:57:25.773Z,98719.22
2022-11-02T05:59:54.049Z,98720.03
2022-11-02T06:02:24.756Z,98715.41
2022-11-02T06:04:53.903Z,98726.34
2022-11-02T06:07:22.242Z,98720.31
2022-11-02T06:09:50.357Z,98726.75
2022-11-02T06:12:20.264Z,98719.31
2022-11-02T06:14:48.354Z,98715.63
2022-11-02T06:17:16.587Z,98727.88
2022-11-02T06:19:44.696Z,98722.56
2022-11-02T06:22:12.996Z,98727.38
2022-11-02T06:24:41.246Z,98727.78
2022-11-02T06:27:09.586Z,98732.00
2022-11-02T06:29:39.560Z,98728.78
2022-11-02T06:32:07.779Z,98731.00
2022-11-02T06:34:36.012Z,98729.47
2022-11-02T06:37:04.265Z,98733.28
2022-11-02T06:39:32.429Z,98743.53
2022-11-02T06:42:00.662Z,98739.13
2022-11-02T06:44:28.878Z,98742.91
2022-11-02T06:46:59.643Z,98752.47
2022-11-02T06:49:27.837Z,98745.75
2022-11-02T06:51:56.172Z,98742.03
2022-11-02T06:54:24.415Z,98738.00
2022-11-02T06:56:52.772Z,98726.78
2022-11-02T06:59:21.053Z,98731.34
2022-11-02T07:01:54.059Z,98732.56
2022-11-02T07:04:23.883Z,98733.72
2022-11-02T07:06:52.151Z,98735.97
2022-11-02T07:09:20.289Z,98742.00
2022-11-02T07:11:48.507Z,98737.72
2022-11-02T07:14:16.651Z,98740.56
2022-11-02T07:16:45.157Z,98747.19
2022-11-02T07:19:13.338Z,98743.38
2022-11-02T07:21:46.557Z,98744.13
2022-11-02T07:24:16.135Z,98738.94
2022-11-02T07:26:44.573Z,98734.44
2022-11-02T07:29:12.668Z,98744.13
2022-11-02T07:31:41.367Z,98747.56
2022-11-02T07:34:14.055Z,98746.88
2022-11-02T07:36:46.354Z,98746.69
2022-11-02T07:39:14.563Z,98741.25
2022-11-02T07:41:45.661Z,98751.09
2022-11-02T07:44:16.900Z,98747.88
2022-11-02T07:46:45.394Z,98739.28
2022-11-02T07:49:17.314Z,98743.84
2022-11-02T07:51:50.107Z,98741.06
2022-11-02T07:54:18.181Z,98737.03
2022-11-02T07:56:46.647Z,98732.31
2022-11-02T07:59:14.803Z,98730.38
2022-11-02T08:01:43.217Z,98728.47
2022-11-02T08:04:11.609Z,98736.06
2022-11-02T08:06:40.070Z,98732.13
2022-11-02T08:09:09.604Z,98727.00
2022-11-02T08:11:58.245Z,98734.09
2022-11-02T08:14:26.263Z,98722.91
2022-11-02T08:16:54.808Z,98723.84
2022-11-02T08:19:23.217Z,98720.56
2022-11-02T08:21:51.454Z,98721.38
2022-11-02T08:24:21.188Z,98723.91
2022-11-02T08:26:52.316Z,98729.28
2022-11-02T08:29:23.431Z,98724.41
2022-11-02T08:31:51.696Z,98720.16
2022-11-02T08:34:20.077Z,98723.75
2022-11-02T08:36:48.297Z,98731.06
2022-11-02T08:39:19.160Z,98720.09
2022-11-02T08:41:48.834Z,98721.47
2022-11-02T08:44:17.404Z,98724.06
2022-11-02T08:46:45.705Z,98718.94
2022-11-02T08:49:14.160Z,98712.81
2022-11-02T08:51:42.394Z,98719.28
2022-11-02T08:54:10.936Z,98713.50
2022-11-02T08:56:39.196Z,98716.47
2022-11-02T08:59:09.679Z,98715.00
2022-11-02T09:01:39.160Z,98713.28
2022-11-02T09:04:07.618Z,98712.44
2022-11-02T09:06:35.819Z,98709.03
2022-11-02T09:09:04.147Z,98700.63
2022-11-02T09:11:32.293Z,98704.25
2022-11-02T09:14:00.639Z,98707.22
2022-11-02T09:16:30.127Z,98709.09
2022-11-02T09:18:58.485Z,98713.28
2022-11-02T09:21:26.739Z,98706.41
2022-11-02T09:23:55.206Z,98707.16
2022-11-02T09:26:23.305Z,98704.25
2022-11-02T09:28:51.676Z,98693.66
2022-11-02T09:31:19.812Z,98694.94
2022-11-02T09:33:49.566Z,98697.84
2022-11-02T09:36:17.716Z,98700.31
2022-11-02T09:38:46.125Z,98706.88
2022-11-02T09:41:17.664Z,98708.84
2022-11-02T09:43:54.995Z,98697.75
2022-11-02T09:46:25.725Z,98703.75
2022-11-02T09:48:58.235Z,98699.94
2022-11-02T09:51:29.553Z,98699.69
2022-11-02T09:54:04.879Z,98702.38
2022-11-02T09:56:33.615Z,98698.09
2022-11-02T09:59:04.293Z,98699.88
2022-11-02T10:01:55.549Z,98695.28
2022-11-02T10:04:50.504Z,98694.00
2022-11-02T10:07:25.599Z,98696.28
2022-11-02T10:09:56.102Z,98699.31
2022-11-02T10:12:29.578Z,98697.66
2022-11-02T10:15:03.916Z,98699.75
2022-11-02T10:17:35.784Z,98700.69
2022-11-02T10:20:08.538Z,98696.91
2022-11-02T10:22:39.368Z,98703.72
2022-11-02T10:25:09.152Z,98695.47
2022-11-02T10:27:40.082Z,98692.34
2022-11-02T10:30:12.399Z,98695.31
2022-11-02T10:35:40.698Z,98686.69
2022-11-02T10:38:16.726Z,98687.22
2022-11-02T10:41:00.435Z,98685.81
2022-11-02T10:43:36.312Z,98684.41
2022-11-02T10:46:20.804Z,98676.91
2022-11-02T10:48:57.647Z,98676.34
2022-11-02T10:51:27.583Z,98673.63
2022-11-02T10:53:55.858Z,98665.56
2022-11-02T10:56:25.294Z,98671.09
2022-11-02T10:59:00.623Z,98667.06
2022-11-02T11:01:30.965Z,98666.16
2022-11-02T11:04:01.179Z,98662.38
2022-11-02T11:06:33.449Z,98654.75
2022-11-02T11:09:04.482Z,98663.84
2022-11-02T11:11:34.702Z,98662.63
2022-11-02T11:16:55.431Z,98649.56
2022-11-02T11:22:28.642Z,98664.38
2022-11-02T11:25:25.850Z,98668.84
2022-11-02T11:27:56.456Z,98657.69
2022-11-02T11:30:58.504Z,98657.03
2022-11-02T11:33:16.447Z,98657.41
2022-11-02T11:35:49.401Z,98657.34
2022-11-02T11:38:21.273Z,98664.19
2022-11-02T11:40:53.961Z,98666.03
2022-11-02T11:43:24.481Z,98650.97
2022-11-02T11:46:01.919Z,98648.25
2022-11-02T11:48:36.829Z,98650.34
2022-11-02T11:51:06.281Z,98652.81
2022-11-02T11:53:38.773Z,98650.50
2022-11-02T11:56:07.417Z,98644.22
2022-11-02T11:58:36.196Z,98639.16
2022-11-02T12:01:10.716Z,98641.25
2022-11-02T12:03:53.294Z,98643.69
2022-11-02T12:06:26.883Z,98639.56
2022-11-02T12:09:04.550Z,98639.28
2022-11-02T12:11:48.549Z,98636.69
2022-11-02T12:14:29.590Z,98639.41
2022-11-02T12:17:10.789Z,98634.78
2022-11-02T12:19:51.993Z,98629.09
2022-11-02T12:22:25.359Z,98634.13
2022-11-02T12:25:30.200Z,98637.19
2022-11-02T12:28:04.621Z,98635.13
2022-11-02T12:30:37.981Z,98631.66
2022-11-02T12:33:10.072Z,98634.13
2022-11-02T12:36:06.824Z,98634.00
2022-11-02T12:39:08.264Z,98631.50
2022-11-02T12:41:46.333Z,98626.38
2022-11-02T12:44:35.556Z,98629.91
2022-11-02T12:47:09.976Z,98624.06
2022-11-02T12:49:42.852Z,98627.28
2022-11-02T12:52:22.857Z,98626.13
2022-11-02T12:54:55.349Z,98629.81
2022-11-02T12:57:27.061Z,98626.19
2022-11-02T12:59:59.225Z,98628.06
2022-11-02T13:02:30.366Z,98627.75
2022-11-02T13:05:01.843Z,98624.84
2022-11-02T13:07:33.509Z,98629.91
2022-11-02T13:10:04.792Z,98634.31
2022-11-02T13:12:37.493Z,98622.03
2022-11-02T13:15:11.796Z,98625.66
2022-11-02T13:17:44.255Z,98628.66
2022-11-02T13:20:17.300Z,98635.22
2022-11-02T13:22:48.728Z,98627.53
2022-11-02T13:25:19.818Z,98633.59
2022-11-02T13:27:50.403Z,98624.31
2022-11-02T13:30:19.776Z,98631.75
2022-11-02T13:32:51.619Z,98632.81
2022-11-02T13:35:30.958Z,98626.94
2022-11-02T13:38:05.700Z,98630.75
2022-11-02T13:40:38.197Z,98635.84
2022-11-02T13:43:42.049Z,98632.56
2022-11-02T13:46:20.087Z,98636.41
2022-11-02T13:48:56.191Z,98634.78
2022-11-02T13:51:32.634Z,98643.97
2022-11-02T13:54:03.121Z,98636.81
2022-11-02T13:56:31.595Z,98638.91
2022-11-02T13:59:03.946Z,98642.38
2022-11-02T14:01:34.271Z,98642.03
2022-11-02T14:04:07.443Z,98642.28
2022-11-02T14:06:46.171Z,98640.06
2022-11-02T14:09:26.091Z,98639.91
2022-11-02T14:12:12.711Z,98643.91
2022-11-02T14:14:42.637Z,98647.09
2022-11-02T14:17:15.081Z,98639.69
2022-11-02T14:19:55.584Z,98638.19
2022-11-02T14:22:23.903Z,98640.94
2022-11-02T14:25:17.504Z,98635.03
2022-11-02T14:27:45.988Z,98639.03
2022-11-02T14:30:47.601Z,98640.25
2022-11-02T14:33:42.442Z,98644.50
2022-11-02T14:36:19.673Z,98637.84
2022-11-02T14:38:56.284Z,98639.22
2022-11-02T14:41:48.633Z,98642.13
2022-11-02T14:44:45.542Z,98645.38
2022-11-02T14:47:16.485Z,98642.31
2022-11-02T14:49:49.598Z,98651.09
2022-11-02T14:52:36.170Z,98654.06
2022-11-02T14:55:06.887Z,98648.31
2022-11-02T14:57:37.039Z,98648.22
2022-11-02T15:00:07.613Z,98646.22
2022-11-02T15:02:43.007Z,98648.81
2022-11-02T15:05:24.028Z,98653.69
2022-11-02T15:07:55.584Z,98658.44
2022-11-02T15:10:37.911Z,98658.72
2022-11-02T15:13:43.545Z,98653.72
2022-11-02T15:16:27.308Z,98665.91
2022-11-02T15:19:36.619Z,98672.75
2022-11-02T15:22:30.223Z,98672.34
2022-11-02T15:25:00.987Z,98672.94
2022-11-02T15:27:29.854Z,98674.97
2022-11-02T15:29:58.919Z,98671.72
2022-11-02T15:32:28.266Z,98686.06
2022-11-02T15:34:58.544Z,98690.13
2022-11-02T15:37:29.565Z,98689.41
2022-11-02T15:39:58.546Z,98701.41
2022-11-02T15:42:38.980Z,98703.47
2022-11-02T15:45:34.224Z,98701.69
2022-11-02T15:48:17.902Z,98703.06
2022-11-02T15:50:54.230Z,98712.72
2022-11-02T15:53:38.410Z,98707.03
2022-11-02T15:56:25.221Z,98709.59
2022-11-02T15:59:12.530Z,98713.25
2022-11-02T16:01:41.631Z,98711.34
2022-11-02T16:04:18.465Z,98710.19
2022-11-02T16:06:49.568Z,98724.59
2022-11-02T16:09:32.473Z,98709.53
2022-11-02T16:12:05.369Z,98727.03
2022-11-02T16:14:33.712Z,98720.97
2022-11-02T16:17:02.138Z,98722.75
2022-11-02T16:19:30.198Z,98724.69
2022-11-02T16:22:01.543Z,98735.78
2022-11-02T16:24:30.067Z,98724.66
2022-11-02T16:26:58.789Z,98731.16
2022-11-02T16:29:30.909Z,98732.84
2022-11-02T16:31:59.410Z,98734.56
2022-11-02T16:34:29.953Z,98737.53
2022-11-02T16:37:00.334Z,98741.94
2022-11-02T16:39:30.497Z,98741.56
2022-11-02T16:42:00.577Z,98751.25
2022-11-02T16:44:29.902Z,98744.06
2022-11-02T16:47:00.136Z,98752.84
2022-11-02T16:49:29.473Z,98754.19
2022-11-02T16:52:00.361Z,98761.03
2022-11-02T16:54:42.234Z,98752.59
2022-11-02T16:57:13.827Z,98757.88
2022-11-02T16:59:51.645Z,98761.28
2022-11-02T17:02:21.125Z,98764.22
2022-11-02T17:07:22.640Z,98768.53
2022-11-02T17:09:54.097Z,98772.56
2022-11-02T17:12:25.130Z,98770.75
2022-11-02T17:14:53.421Z,98777.63
2022-11-02T17:17:36.637Z,98768.19
2022-11-02T17:20:18.170Z,98779.38
2022-11-02T17:22:51.568Z,98782.88
2022-11-02T17:25:22.608Z,98786.00
2022-11-02T17:27:51.507Z,98797.13
2022-11-02T17:30:45.028Z,98787.53
2022-11-02T17:33:28.451Z,98782.06
2022-11-02T17:35:58.348Z,98800.44
2022-11-02T17:38:28.664Z,98797.63
2022-11-02T17:40:57.160Z,98802.53
2022-11-02T17:43:24.317Z,98790.91
2022-11-02T17:45:57.150Z,98794.47
2022-11-02T17:48:25.693Z,98802.59
2022-11-02T17:50:55.395Z,98796.06
2022-11-02T17:53:24.221Z,98798.38
2022-11-02T17:55:54.542Z,98799.81
2022-11-02T17:58:22.700Z,98799.75
2022-11-02T18:00:53.937Z,98809.88
2022-11-02T18:03:25.378Z,98812.78
2022-11-02T18:05:59.822Z,98806.91
2022-11-02T18:08:28.282Z,98805.66
2022-11-02T18:10:58.261Z,98810.53
2022-11-02T18:13:26.311Z,98807.53
2022-11-02T18:15:54.785Z,98806.78
2022-11-02T18:18:23.215Z,98807.59
2022-11-02T18:20:51.613Z,98803.50
2022-11-02T18:23:20.506Z,98809.34
2022-11-02T18:25:49.081Z,98809.34
2022-11-02T18:28:18.678Z,98812.72
2022-11-02T18:30:47.077Z,98813.44
2022-11-02T18:33:15.624Z,98821.00
2022-11-02T18:35:44.321Z,98825.00
2022-11-02T18:38:12.971Z,98825.47
2022-11-02T18:40:41.610Z,98817.81
2022-11-02T18:43:10.051Z,98820.38
2022-11-02T18:45:40.270Z,98818.13
2022-11-02T18:48:09.794Z,98826.50
2022-11-02T18:50:38.493Z,98832.00
2022-11-02T18:53:06.715Z,98839.53
2022-11-02T18:55:35.113Z,98836.38
2022-11-02T18:58:03.551Z,98835.56
2022-11-02T19:00:32.182Z,98831.09
2022-11-02T19:03:01.914Z,98845.00
2022-11-02T19:05:59.549Z,98836.72
2022-11-02T19:08:45.254Z,98836.38
2022-11-02T19:11:13.736Z,98847.41
2022-11-02T19:13:41.861Z,98855.13
2022-11-02T19:16:10.278Z,98849.03
2022-11-02T19:18:39.794Z,98852.91
2022-11-02T19:21:08.304Z,98855.41
2022-11-02T19:23:36.714Z,98850.09
2022-11-02T19:26:06.713Z,98847.25
2022-11-02T19:28:34.918Z,98848.06
2022-11-02T19:31:06.041Z,98852.25
2022-11-02T19:33:34.231Z,98856.28
2022-11-02T19:36:04.169Z,98863.69
2022-11-02T19:38:37.431Z,98873.97
2022-11-02T19:41:09.904Z,98879.28
2022-11-02T19:43:39.116Z,98879.09
2022-11-02T19:46:08.711Z,98872.75
2022-11-02T19:48:36.912Z,98878.94
2022-11-02T19:51:09.216Z,98888.78
2022-11-02T19:53:38.352Z,98886.41
2022-11-02T19:56:10.499Z,98887.03
2022-11-02T19:58:39.438Z,98876.53
2022-11-02T20:01:09.497Z,98883.97
2022-11-02T20:03:38.455Z,98881.84
2022-11-02T20:06:11.742Z,98882.34
2022-11-02T20:08:40.236Z,98887.00
2022-11-02T20:11:09.860Z,98882.97
2022-11-02T20:13:40.448Z,98887.50
2022-11-02T20:16:09.566Z,98893.41
2022-11-02T20:18:39.798Z,98898.22
2022-11-02T20:21:12.669Z,98887.16
2022-11-02T20:23:41.759Z,98886.97
2022-11-02T20:26:12.053Z,98890.63
2022-11-02T20:28:41.809Z,98891.31
2022-11-02T20:31:11.469Z,98887.00
2022-11-02T20:33:40.920Z,98888.63
2022-11-02T20:36:11.572Z,98888.56
2022-11-02T20:38:42.243Z,98885.50
2022-11-02T20:41:12.477Z,98884.84
2022-11-02T20:43:41.912Z,98888.59
2022-11-02T20:46:36.556Z,98886.13
2022-11-02T20:49:09.045Z,98888.50
2022-11-02T20:51:51.448Z,98886.66
2022-11-02T20:54:20.194Z,98880.13
2022-11-02T20:56:48.910Z,98892.63
2022-11-02T20:59:17.123Z,98887.13
2022-11-02T21:01:46.061Z,98885.56
2022-11-02T21:04:20.232Z,98888.84
2022-11-02T21:06:51.285Z,98900.47
2022-11-02T21:09:19.535Z,98894.88
2022-11-02T21:12:05.775Z,98892.03
2022-11-02T21:14:33.942Z,98895.25
2022-11-02T21:17:03.224Z,98900.22
2022-11-02T21:19:31.402Z,98895.19
2022-11-02T21:22:01.180Z,98900.81
2022-11-02T21:24:29.725Z,98906.00
2022-11-02T21:26:58.336Z,98909.09
2022-11-02T21:29:26.475Z,98911.78
2022-11-02T21:31:54.906Z,98907.91
2022-11-02T21:34:23.071Z,98907.91
2022-11-02T21:36:51.449Z,98904.75
2022-11-02T21:39:20.867Z,98904.94
2022-11-02T21:41:49.545Z,98907.19
2022-11-02T21:44:17.630Z,98904.63
2022-11-02T21:46:46.195Z,98917.28
2022-11-02T21:49:14.277Z,98908.06
2022-11-02T21:51:43.033Z,98908.41
2022-11-02T21:54:11.486Z,98911.19
2022-11-02T21:56:41.387Z,98901.53
2022-11-02T21:59:10.178Z,98905.81
2022-11-02T22:01:49.431Z,98902.47
2022-11-02T22:04:19.608Z,98895.66
2022-11-02T22:06:48.270Z,98898.88
2022-11-02T22:09:16.428Z,98900.97
2022-11-02T22:11:46.413Z,98904.78
2022-11-02T22:14:15.229Z,98907.38
2022-11-02T22:16:44.707Z,98903.41
2022-11-02T22:19:13.701Z,98907.00
2022-11-02T22:21:43.847Z,98906.47
2022-11-02T22:24:12.468Z,98905.00
2022-11-02T22:26:41.316Z,98907.41
2022-11-02T22:29:11.420Z,98909.44
2022-11-02T22:31:41.674Z,98917.00
2022-11-02T22:34:12.020Z,98917.94
2022-11-02T22:36:41.976Z,98921.28
2022-11-02T22:39:11.976Z,98924.25
2022-11-02T22:41:41.411Z,98934.78
2022-11-02T22:44:12.255Z,98931.00
2022-11-02T22:46:41.677Z,98929.56
2022-11-02T22:49:11.262Z,98929.34
2022-11-02T22:51:41.312Z,98934.38
2022-11-02T22:54:11.803Z,98930.81
2022-11-02T22:56:40.212Z,98938.03
2022-11-02T22:59:08.481Z,98934.81
2022-11-02T23:01:38.601Z,98930.75
2022-11-02T23:04:07.990Z,98938.69
2022-11-02T23:06:36.455Z,98940.47
2022-11-02T23:09:05.065Z,98939.38
2022-11-02T23:11:35.529Z,98942.06
2022-11-02T23:14:05.609Z,98936.25
2022-11-02T23:16:35.054Z,98932.69
2022-11-02T23:19:27.628Z,98936.84
2022-11-02T23:22:14.991Z,98936.25
2022-11-02T23:25:02.399Z,98927.25
2022-11-02T23:27:30.991Z,98943.06
2022-11-02T23:30:16.620Z,98946.72
2022-11-02T23:32:44.810Z,98948.66
2022-11-02T23:35:32.208Z,98950.09
2022-11-02T23:38:05.348Z,98939.84
2022-11-02T23:40:34.178Z,98943.22
2022-11-02T23:43:03.273Z,98948.72
2022-11-02T23:45:31.954Z,98953.72
2022-11-02T23:48:01.448Z,98954.28
2022-11-02T23:50:50.676Z,98949.19
2022-11-02T23:53:38.269Z,98954.53
2022-11-02T23:56:42.077Z,98955.19
2022-11-02T23:59:10.176Z,98958.09
